createdAt,value
2018-12-22T00:01:25.789Z,0.60
2018-12-22T00:06:22.997Z,0.73
2018-12-22T00:11:18.444Z,0.80
2018-12-22T00:16:16.523Z,0.80
2018-12-22T00:21:17.715Z,0.70
2018-12-22T00:26:19.495Z,0.93
2018-12-22T00:31:23.904Z,0.87
2018-12-22T00:36:22.264Z,1.20
2018-12-22T00:41:19.498Z,0.80
2018-12-22T00:46:19.857Z,0.50
2018-12-22T00:51:18.155Z,0.87
2018-12-22T00:56:13.403Z,0.50
2018-12-22T01:01:08.226Z,0.60
2018-12-22T01:06:04.098Z,0.40
2018-12-22T01:10:59.431Z,0.70
2018-12-22T01:15:54.268Z,0.60
2018-12-22T01:20:48.982Z,0.43
2018-12-22T01:25:43.788Z,0.50
2018-12-22T01:30:38.663Z,0.30
2018-12-22T01:35:33.432Z,0.10
2018-12-22T01:40:29.429Z,0.20
2018-12-22T01:45:25.350Z,0.10
2018-12-22T01:50:23.969Z,0.10
2018-12-22T01:55:18.823Z,0.20
2018-12-22T02:00:13.800Z,0.10
2018-12-22T02:05:10.417Z,0.20
2018-12-22T02:10:06.521Z,0.10
2018-12-22T02:15:02.302Z,0.10
2018-12-22T02:19:56.990Z,0.20
2018-12-22T02:24:53.373Z,0.10
2018-12-22T02:29:48.108Z,0.20
2018-12-22T02:34:43.623Z,0.97
2018-12-22T02:39:38.468Z,0.20
2018-12-22T02:44:33.301Z,0.20
2018-12-22T02:49:27.975Z,0.20
2018-12-22T02:54:22.769Z,0.10
2018-12-22T02:59:18.710Z,0.30
2018-12-22T03:04:13.399Z,0.20
2018-12-22T03:09:08.544Z,0.43
2018-12-22T03:14:03.456Z,3.40
2018-12-22T03:18:58.068Z,0.30
2018-12-22T03:23:52.785Z,0.10
2018-12-22T03:28:47.666Z,0.53
2018-12-22T03:33:42.729Z,0.20
2018-12-22T03:38:37.390Z,0.10
2018-12-22T03:43:32.173Z,0.80
2018-12-22T03:48:27.104Z,0.93
2018-12-22T03:53:23.020Z,0.20
2018-12-22T03:58:17.697Z,0.20
2018-12-22T04:03:12.736Z,0.00
2018-12-22T04:08:07.361Z,0.10
2018-12-22T04:13:02.276Z,0.20
2018-12-22T04:17:56.919Z,0.20
2018-12-22T04:22:51.564Z,0.10
2018-12-22T04:27:46.318Z,0.57
2018-12-22T04:32:41.952Z,0.30
2018-12-22T04:37:37.074Z,0.23
2018-12-22T04:42:31.924Z,0.13
2018-12-22T04:47:26.716Z,0.20
2018-12-22T04:52:21.755Z,0.37
2018-12-22T04:57:16.857Z,0.30
2018-12-22T05:02:11.682Z,0.53
2018-12-22T05:07:06.719Z,0.47
2018-12-22T05:12:01.674Z,0.37
2018-12-22T05:16:56.413Z,1.60
2018-12-22T05:21:51.457Z,0.50
2018-12-22T05:26:47.161Z,0.80
2018-12-22T05:31:42.085Z,1.63
2018-12-22T05:36:37.507Z,0.30
2018-12-22T05:41:32.522Z,0.40
2018-12-22T05:46:27.552Z,1.20
2018-12-22T05:51:22.589Z,0.10
2018-12-22T05:56:17.734Z,0.40
2018-12-22T06:01:12.770Z,1.23
2018-12-22T06:06:07.527Z,0.30
2018-12-22T06:11:02.321Z,0.20
2018-12-22T06:15:57.117Z,0.60
2018-12-22T06:20:51.881Z,1.17
2018-12-22T06:25:48.501Z,0.30
2018-12-22T06:30:43.228Z,0.30
2018-12-22T06:35:38.065Z,0.30
2018-12-22T06:40:39.530Z,0.60
2018-12-22T06:45:34.960Z,0.27
2018-12-22T06:50:30.947Z,0.27
2018-12-22T06:55:26.329Z,0.30
2018-12-22T07:00:21.512Z,0.83
2018-12-22T07:05:16.477Z,1.40
2018-12-22T07:10:11.463Z,0.63
2018-12-22T07:15:31.204Z,0.37
2018-12-22T07:36:37.722Z,0.30
2018-12-22T07:41:34.439Z,0.37
2018-12-22T07:46:31.234Z,0.50
2018-12-22T07:51:26.289Z,1.43
2018-12-22T07:56:21.928Z,0.40
2018-12-22T08:01:16.886Z,0.50
2018-12-22T08:06:16.680Z,0.40
2018-12-22T08:11:13.300Z,0.17
2018-12-22T08:16:08.436Z,0.30
2018-12-22T08:30:33.909Z,0.43
2018-12-22T08:41:25.778Z,2.30
2018-12-22T08:46:20.544Z,0.60
2018-12-22T08:51:15.602Z,0.90
2018-12-22T08:56:16.678Z,0.80
2018-12-22T09:01:11.420Z,2.67
2018-12-22T09:06:06.733Z,2.10
2018-12-22T09:11:02.541Z,0.77
2018-12-22T09:15:58.565Z,3.20
2018-12-22T09:20:53.346Z,0.80
2018-12-22T09:25:48.988Z,3.00
2018-12-22T09:30:44.006Z,2.90
2018-12-22T09:35:41.935Z,1.70
2018-12-22T09:40:37.922Z,1.40
2018-12-22T09:51:35.872Z,1.70
2018-12-22T09:56:44.354Z,1.03
2018-12-22T10:23:50.633Z,1.60
2018-12-22T10:30:13.105Z,1.40
2018-12-22T10:35:26.819Z,3.00
2018-12-22T10:40:36.925Z,0.73
2018-12-22T10:56:58.930Z,2.40
2018-12-22T11:08:43.674Z,2.13
2018-12-22T11:20:29.919Z,2.43
2018-12-22T11:25:42.753Z,3.90
2018-12-22T11:38:38.513Z,4.63
2018-12-22T12:19:32.159Z,2.77
2018-12-22T12:25:03.357Z,3.60
2018-12-22T12:30:29.353Z,3.03
2018-12-22T12:41:56.051Z,4.47
2018-12-22T13:11:56.000Z,7.40
2018-12-22T13:22:41.631Z,2.37
2018-12-22T13:27:54.632Z,3.40
2018-12-22T13:32:57.180Z,2.67
2018-12-22T13:44:30.461Z,4.60
2018-12-22T14:28:15.310Z,3.87
2018-12-22T14:38:40.298Z,6.70
2018-12-22T15:12:33.731Z,1.90
2018-12-22T15:17:28.450Z,2.63
2018-12-22T15:22:23.175Z,8.13
2018-12-22T15:27:17.842Z,3.90
2018-12-22T15:32:12.517Z,2.53
2018-12-22T15:37:07.214Z,3.77
2018-12-22T15:42:04.246Z,2.57
2018-12-22T15:46:58.929Z,4.27
2018-12-22T15:51:53.956Z,2.57
2018-12-22T15:56:48.836Z,3.23
2018-12-22T16:01:43.496Z,3.60
2018-12-22T16:06:38.761Z,3.13
2018-12-22T16:11:54.176Z,2.83
2018-12-22T16:16:49.729Z,6.70
2018-12-22T16:21:44.549Z,2.07
2018-12-22T16:26:39.398Z,1.00
2018-12-22T16:31:34.479Z,3.07
2018-12-22T16:36:29.304Z,1.97
2018-12-22T16:41:24.054Z,3.00
2018-12-22T16:46:19.970Z,4.10
2018-12-22T16:51:14.826Z,6.30
2018-12-22T16:56:10.073Z,2.57
2018-12-22T17:02:34.802Z,2.83
2018-12-22T17:07:29.631Z,3.63
2018-12-22T17:12:24.883Z,6.00
2018-12-22T17:17:19.569Z,4.40
2018-12-22T17:22:22.023Z,3.90
2018-12-22T17:27:18.203Z,5.30
2018-12-22T17:32:12.975Z,3.37
2018-12-22T17:37:07.939Z,4.20
2018-12-22T17:42:07.573Z,6.50
2018-12-22T17:47:02.307Z,4.93
2018-12-22T17:51:57.014Z,1.80
2018-12-22T17:56:51.732Z,3.87
2018-12-22T18:01:46.699Z,5.03
2018-12-22T18:06:42.385Z,5.37
2018-12-22T18:11:46.901Z,3.23
2018-12-22T18:16:49.930Z,3.93
2018-12-22T18:21:51.029Z,4.60
2018-12-22T18:26:45.673Z,2.60
2018-12-22T18:31:44.261Z,3.77
2018-12-22T18:37:17.529Z,7.50
2018-12-22T18:42:13.017Z,5.57
2018-12-22T18:47:07.869Z,4.30
2018-12-22T18:52:02.679Z,3.67
2018-12-22T18:57:07.540Z,3.90
2018-12-22T19:02:02.187Z,5.77
2018-12-22T19:14:12.488Z,2.90
2018-12-22T19:19:07.457Z,4.77
2018-12-22T19:24:05.318Z,0.70
2018-12-22T19:29:00.307Z,2.17
2018-12-22T19:33:57.158Z,4.53
2018-12-22T19:38:52.352Z,1.97
2018-12-22T19:43:53.156Z,1.07
2018-12-22T19:48:48.061Z,3.43
2018-12-22T19:53:43.105Z,4.90
2018-12-22T19:58:37.909Z,2.07
2018-12-22T20:03:32.971Z,4.93
2018-12-22T20:08:28.000Z,1.73
2018-12-22T20:13:22.939Z,4.87
2018-12-22T20:18:17.806Z,3.50
2018-12-22T20:23:13.509Z,3.13
2018-12-22T20:28:08.862Z,5.50
2018-12-22T20:33:03.795Z,4.67
2018-12-22T20:38:08.964Z,4.73
2018-12-22T20:43:21.909Z,5.53
2018-12-22T21:16:26.681Z,2.20
2018-12-22T21:21:21.589Z,5.00
2018-12-22T21:26:16.483Z,2.37
2018-12-22T21:31:11.637Z,1.77
2018-12-22T21:36:06.520Z,1.90
2018-12-22T21:41:01.630Z,3.43
2018-12-22T21:45:56.537Z,5.90
2018-12-22T21:50:51.424Z,3.30
2018-12-22T21:55:46.472Z,8.47
2018-12-22T22:00:43.300Z,3.47
2018-12-22T22:05:38.282Z,3.83
2018-12-22T22:10:33.217Z,6.30
2018-12-22T22:15:28.487Z,6.17
2018-12-22T22:20:23.482Z,4.53
2018-12-22T22:25:18.759Z,2.23
2018-12-22T22:30:13.857Z,3.60
2018-12-22T22:35:08.767Z,3.50
2018-12-22T22:40:03.824Z,4.10
2018-12-22T22:45:01.473Z,2.97
2018-12-22T22:50:09.654Z,5.90
2018-12-22T22:55:04.868Z,5.70
2018-12-22T22:59:59.771Z,5.30
2018-12-22T23:04:54.918Z,3.40
2018-12-22T23:09:59.135Z,3.27
2018-12-22T23:14:54.176Z,2.00
2018-12-22T23:19:58.349Z,6.20
2018-12-22T23:24:53.170Z,3.50
2018-12-22T23:29:49.266Z,5.63
2018-12-22T23:34:44.562Z,5.37
2018-12-22T23:39:39.681Z,3.50
2018-12-22T23:44:35.924Z,3.13
2018-12-22T23:49:31.460Z,6.20
2018-12-22T23:54:27.924Z,4.30
2018-12-22T23:59:26.265Z,3.97
